Time;durP1;ratioP1;P1;durP2;ratioP2;P2;SDS_P1;SDS_P2;PMS_P1;PMS_P2;Temp;Humidity;BMP_temperature;BMP_pressure;BME280_temperature;BME280_humidity;BME280_pressure;Samples;Min_cycle;Max_cycle;Signal;HPM_P1;HPM_P2
2023/05/14 00:01:47;;;;;;;9.05;5.57;;;;;;;14.67;59.99;100127.63;4471867;32;20114;-89
2023/05/14 00:04:13;;;;;;;8.35;5.32;;;;;;;14.58;59.99;100125.37;4472209;32;20130;-91
2023/05/14 00:06:38;;;;;;;7.97;5.32;;;;;;;14.45;59.98;100123.34;4472719;32;20160;-91
2023/05/14 00:09:04;;;;;;;11.38;6.07;;;;;;;14.49;59.98;100115.28;4472181;32;20390;-91
2023/05/14 00:11:29;;;;;;;8.52;5.62;;;;;;;14.44;59.98;100122.50;4458983;32;20131;-90
2023/05/14 00:13:55;;;;;;;11.70;5.80;;;;;;;14.49;59.98;100110.03;4459053;32;20112;-90
2023/05/14 00:16:20;;;;;;;9.48;5.60;;;;;;;14.53;59.98;100108.16;4458686;32;28110;-92
2023/05/14 00:18:46;;;;;;;9.43;5.47;;;;;;;14.60;59.98;100106.97;4458372;32;29040;-91
2023/05/14 00:21:11;;;;;;;9.82;5.28;;;;;;;14.45;59.98;100107.63;4459230;32;20158;-91
2023/05/14 00:23:37;;;;;;;9.93;5.45;;;;;;;14.33;59.96;100109.78;4459287;32;20245;-90
2023/05/14 00:26:02;;;;;;;8.13;5.12;;;;;;;14.37;59.97;100106.13;4459326;32;20151;-89
2023/05/14 00:28:28;;;;;;;8.27;5.28;;;;;;;14.46;59.97;100104.94;4459537;32;20122;-92
2023/05/14 00:30:54;;;;;;;7.10;5.22;;;;;;;14.39;59.97;100101.69;4459108;32;20148;-91
2023/05/14 00:33:20;;;;;;;8.20;5.20;;;;;;;14.39;59.97;100099.06;4459477;32;20134;-91
2023/05/14 00:35:45;;;;;;;6.82;5.75;;;;;;;14.30;59.97;100104.69;4459456;32;20109;-91
2023/05/14 00:38:15;;;;;;;7.82;5.28;;;;;;;14.23;59.97;100089.31;4471956;32;20104;-91
2023/05/14 00:40:44;;;;;;;7.25;5.32;;;;;;;14.31;59.96;100087.22;4460667;32;20096;-93
2023/05/14 00:43:10;;;;;;;8.38;5.30;;;;;;;14.24;59.96;100091.00;4460644;32;20104;-92
2023/05/14 00:45:35;;;;;;;9.13;4.82;;;;;;;14.20;59.96;100095.53;4460689;32;20104;-92
2023/05/14 00:48:01;;;;;;;9.13;5.80;;;;;;;14.14;59.96;100082.66;4459221;32;26747;-92
2023/05/14 00:50:26;;;;;;;9.60;5.43;;;;;;;14.13;59.96;100086.19;4458435;32;35767;-91
2023/05/14 00:52:52;;;;;;;9.68;5.10;;;;;;;14.12;59.96;100084.50;4459489;32;20104;-90
2023/05/14 00:55:17;;;;;;;7.85;5.57;;;;;;;14.14;59.96;100082.66;4458293;32;20134;-90
2023/05/14 00:57:43;;;;;;;7.43;5.40;;;;;;;14.04;59.95;100071.72;4458524;32;29822;-92
2023/05/14 01:00:08;;;;;;;7.87;4.85;;;;;;;14.15;59.96;100066.03;4459179;32;20064;-90
2023/05/14 01:02:34;;;;;;;7.25;5.10;;;;;;;14.06;59.95;100069.06;4459457;32;20108;-91
2023/05/14 01:04:59;;;;;;;11.88;5.50;;;;;;;14.00;59.95;100069.31;4459451;32;20126;-90
2023/05/14 01:07:34;;;;;;;7.60;5.10;;;;;;;13.92;59.94;100055.66;4473624;32;20080;-91
2023/05/14 01:10:12;;;;;;;9.65;5.12;;;;;;;13.96;59.95;100057.25;4476546;32;20103;-92
2023/05/14 01:12:59;;;;;;;6.65;4.95;;;;;;;13.94;59.94;100067.78;4465947;32;20399;-91
2023/05/14 01:15:27;;;;;;;8.98;5.30;;;;;;;14.05;59.96;100060.34;4472012;32;20116;-90
2023/05/14 01:17:59;;;;;;;8.20;4.80;;;;;;;14.06;59.96;100061.19;4472266;32;20092;-91
2023/05/14 01:20:25;;;;;;;8.27;5.03;;;;;;;13.90;59.95;100058.34;4459139;32;20092;-91
2023/05/14 01:22:50;;;;;;;8.40;5.60;;;;;;;14.06;59.96;100051.56;4459051;32;20139;-92
2023/05/14 01:25:16;;;;;;;9.05;5.05;;;;;;;14.09;59.97;100054.06;4458348;32;25805;-91
2023/05/14 01:27:42;;;;;;;7.35;5.30;;;;;;;13.93;59.95;100052.12;4458834;32;20152;-90
2023/05/14 01:30:10;;;;;;;8.13;4.95;;;;;;;13.89;59.95;100061.88;4471674;32;20776;-92
2023/05/14 01:32:35;;;;;;;11.90;5.65;;;;;;;13.95;59.96;100050.31;4471693;32;20160;-91
2023/05/14 01:35:00;;;;;;;8.98;5.32;;;;;;;13.90;59.95;100050.50;4458396;32;20173;-90
2023/05/14 01:37:26;;;;;;;7.70;4.90;;;;;;;14.02;59.95;100038.69;4457735;32;26934;-89
2023/05/14 01:39:51;;;;;;;7.40;4.72;;;;;;;14.01;59.95;100031.75;4458146;32;20109;-89
2023/05/14 01:42:17;;;;;;;7.75;5.07;;;;;;;14.00;59.95;100027.44;4484367;32;20457;-89
2023/05/14 01:44:42;;;;;;;11.95;5.10;;;;;;;14.08;59.95;100031.44;4458233;32;20134;-90
2023/05/14 01:47:07;;;;;;;5.95;4.30;;;;;;;14.02;59.95;100020.37;4484229;32;20096;-89
2023/05/14 01:49:33;;;;;;;8.30;5.20;;;;;;;13.88;59.95;100020.06;4483397;32;30766;-90
2023/05/14 01:51:58;;;;;;;7.47;4.57;;;;;;;13.87;59.94;100019.22;4458066;32;20403;-88
2023/05/14 01:54:24;;;;;;;7.82;4.32;;;;;;;13.92;59.95;100008.56;4471059;32;20443;-90
2023/05/14 01:56:50;;;;;;;5.87;4.50;;;;;;;13.84;59.94;100008.88;4483576;32;25534;-90
2023/05/14 01:59:16;;;;;;;7.12;4.65;;;;;;;14.02;59.96;100000.28;4484407;32;20523;-89
2023/05/14 02:01:41;;;;;;;6.32;4.68;;;;;;;14.09;59.96;99995.63;4485170;31;20169;-91
2023/05/14 02:04:07;;;;;;;5.78;4.30;;;;;;;13.90;59.95;100003.41;4457125;32;33040;-90
2023/05/14 02:06:32;;;;;;;7.87;4.93;;;;;;;13.87;59.94;100000.91;4471520;32;20084;-88
2023/05/14 02:08:58;;;;;;;7.80;4.75;;;;;;;13.94;59.96;99997.12;4473184;32;20088;-90
2023/05/14 02:11:23;;;;;;;6.80;4.35;;;;;;;14.09;59.95;100000.88;4459530;32;25302;-91
2023/05/14 02:13:48;;;;;;;9.95;5.00;;;;;;;14.08;59.96;99999.16;4460232;32;20101;-90
2023/05/14 02:16:14;;;;;;;7.87;5.07;;;;;;;13.95;59.94;99993.56;4460271;32;20470;-91
2023/05/14 02:18:39;;;;;;;5.85;4.62;;;;;;;14.15;59.96;100000.59;4460053;32;20476;-91
2023/05/14 02:21:05;;;;;;;8.20;4.00;;;;;;;14.12;59.96;99998.97;4473404;32;20121;-92
2023/05/14 02:23:30;;;;;;;7.85;4.40;;;;;;;13.98;59.95;99997.88;4460749;32;20140;-90
2023/05/14 02:25:56;;;;;;;7.37;4.03;;;;;;;14.02;59.96;99997.66;4460778;32;20108;-91
2023/05/14 02:28:21;;;;;;;5.72;4.28;;;;;;;13.98;59.95;99988.25;4461139;32;20409;-91
2023/05/14 02:30:46;;;;;;;6.53;4.62;;;;;;;13.99;59.95;99995.19;4462636;32;20396;-91
2023/05/14 02:33:12;;;;;;;5.60;3.95;;;;;;;14.09;59.97;99988.63;4469522;32;24683;-92
2023/05/14 02:35:37;;;;;;;5.65;3.70;;;;;;;14.11;59.96;99986.78;4462543;32;20536;-91
2023/05/14 02:38:03;;;;;;;6.90;4.32;;;;;;;14.10;59.96;99990.31;4486105;32;20092;-90
2023/05/14 02:40:28;;;;;;;7.65;4.40;;;;;;;14.23;59.96;99989.81;4459415;32;21548;-89
2023/05/14 02:42:53;;;;;;;5.07;3.83;;;;;;;14.19;59.97;99989.06;4460083;32;20108;-89
2023/05/14 02:45:20;;;;;;;10.77;5.18;;;;;;;14.08;59.95;99986.94;4459280;32;21515;-89
2023/05/14 02:47:45;;;;;;;7.12;4.22;;;;;;;14.20;59.96;99984.72;4459841;32;20159;-88
2023/05/14 02:50:11;;;;;;;5.12;3.78;;;;;;;14.12;59.96;99990.25;4472593;32;20128;-89
2023/05/14 02:52:36;;;;;;;6.47;3.95;;;;;;;14.10;59.96;99992.94;4472711;32;20088;-89
2023/05/14 02:55:02;;;;;;;11.05;4.62;;;;;;;14.09;59.97;99983.38;4459685;32;20119;-89
2023/05/14 02:57:27;;;;;;;7.70;4.68;;;;;;;14.15;59.96;99990.12;4485692;32;20128;-88
2023/05/14 02:59:52;;;;;;;5.43;4.12;;;;;;;14.13;59.96;99984.09;4472523;32;20150;-87
2023/05/14 03:02:18;;;;;;;7.80;4.50;;;;;;;14.03;59.96;99988.03;4459034;32;24802;-88
2023/05/14 03:04:43;;;;;;;12.57;5.60;;;;;;;14.18;59.96;99971.66;4459128;32;20452;-88
2023/05/14 03:07:09;;;;;;;7.40;4.43;;;;;;;14.14;59.96;99967.47;4459457;32;20116;-90
2023/05/14 03:09:34;;;;;;;6.30;4.32;;;;;;;14.11;59.96;99972.84;4472596;32;20148;-88
2023/05/14 03:11:59;;;;;;;8.73;4.40;;;;;;;13.96;59.95;99978.72;4472424;32;20424;-89
2023/05/14 03:14:25;;;;;;;8.50;4.55;;;;;;;14.18;59.96;99974.28;4472388;32;20125;-88
2023/05/14 03:16:50;;;;;;;5.68;3.87;;;;;;;14.13;59.96;99984.09;4471418;32;33758;-89
2023/05/14 03:19:16;;;;;;;7.97;4.80;;;;;;;14.03;59.96;99980.19;4458933;32;20103;-90
2023/05/14 03:21:41;;;;;;;6.93;4.15;;;;;;;14.06;59.95;99978.28;4459387;32;20157;-91
2023/05/14 03:24:06;;;;;;;9.45;4.07;;;;;;;14.14;59.96;99975.34;4472410;32;20127;-89
2023/05/14 03:26:32;;;;;;;6.45;4.20;;;;;;;14.19;59.96;99967.28;4472529;32;20465;-89
2023/05/14 03:28:58;;;;;;;5.68;4.18;;;;;;;14.22;59.96;99968.03;4472563;32;20547;-88
2023/05/14 03:31:23;;;;;;;8.93;4.85;;;;;;;14.26;59.97;99961.72;4472134;32;20789;-87
2023/05/14 03:33:49;;;;;;;5.95;4.28;;;;;;;14.22;59.97;99967.16;4472475;32;20377;-88
2023/05/14 03:36:14;;;;;;;10.02;4.57;;;;;;;14.04;59.96;99960.94;4472410;32;20115;-89
2023/05/14 03:38:40;;;;;;;7.20;4.60;;;;;;;14.12;59.96;99969.31;4459011;32;22489;-89
2023/05/14 03:41:05;;;;;;;6.37;4.22;;;;;;;14.17;59.96;99967.34;4472635;32;20137;-89
2023/05/14 03:43:30;;;;;;;6.90;4.50;;;;;;;14.10;59.97;99965.91;4472599;32;20164;-89
2023/05/14 03:45:56;;;;;;;6.70;4.22;;;;;;;14.17;59.95;99972.59;4472660;32;20088;-89
2023/05/14 03:48:21;;;;;;;5.65;3.72;;;;;;;14.22;59.97;99973.25;4472324;32;20172;-89
2023/05/14 03:50:47;;;;;;;9.77;4.87;;;;;;;14.25;59.96;99974.88;4473489;32;20144;-89
2023/05/14 03:53:12;;;;;;;7.40;4.28;;;;;;;14.22;59.97;99954.94;4461288;32;20100;-90
2023/05/14 03:55:37;;;;;;;7.80;4.35;;;;;;;14.20;59.96;99955.91;4464462;32;20192;-89
2023/05/14 03:58:06;;;;;;;7.62;4.37;;;;;;;14.23;59.96;99951.41;4472327;32;20134;-89
2023/05/14 04:00:32;;;;;;;7.70;5.10;;;;;;;14.16;59.96;99960.41;4485128;32;20168;-89
2023/05/14 04:02:57;;;;;;;7.70;4.22;;;;;;;14.10;59.96;99956.28;4459182;32;20112;-89
2023/05/14 04:05:23;;;;;;;6.03;4.18;;;;;;;14.30;59.96;99959.81;4471731;32;20107;-92
2023/05/14 04:07:48;;;;;;;6.25;4.37;;;;;;;14.14;59.96;99951.78;4472178;32;20426;-90
2023/05/14 04:10:14;;;;;;;8.15;4.12;;;;;;;14.17;59.96;99953.41;4471993;32;20171;-89
2023/05/14 04:12:39;;;;;;;6.68;3.72;;;;;;;14.24;59.96;99958.31;4471793;32;20143;-87
2023/05/14 04:15:05;;;;;;;9.52;4.37;;;;;;;14.20;59.96;99956.78;4485045;32;20153;-88
2023/05/14 04:17:30;;;;;;;6.78;4.35;;;;;;;14.23;59.96;99955.78;4472053;32;20546;-88
2023/05/14 04:19:56;;;;;;;6.37;3.72;;;;;;;14.25;59.96;99960.03;4458647;32;20136;-88
2023/05/14 04:22:21;;;;;;;9.40;4.15;;;;;;;14.22;59.96;99954.09;4458276;32;24828;-88
2023/05/14 04:24:47;;;;;;;8.27;3.80;;;;;;;14.27;59.97;99946.88;4485066;32;20174;-87
2023/05/14 04:27:19;;;;;;;6.30;4.22;;;;;;;14.28;59.97;99949.41;4485352;31;29751;-88
2023/05/14 04:29:45;;;;;;;7.40;4.15;;;;;;;14.30;59.96;99951.97;4472108;32;20112;-87
2023/05/14 04:32:11;;;;;;;8.20;3.78;;;;;;;14.25;59.96;99946.94;4458685;32;20152;-87
2023/05/14 04:34:36;;;;;;;8.15;3.55;;;;;;;14.14;59.96;99950.00;4485226;32;20096;-86
2023/05/14 04:37:03;;;;;;;5.97;3.58;;;;;;;14.24;59.96;99941.78;4471897;32;20116;-89
2023/05/14 04:39:28;;;;;;;4.50;3.60;;;;;;;14.30;59.97;99944.09;4472149;32;20503;-90
2023/05/14 04:41:54;;;;;;;5.82;3.83;;;;;;;14.24;59.96;99953.09;4472017;32;20137;-90
2023/05/14 04:44:19;;;;;;;4.43;3.50;;;;;;;14.30;59.96;99952.81;4459015;32;20104;-90
2023/05/14 04:46:45;;;;;;;4.25;3.20;;;;;;;14.12;59.96;99959.69;4471386;32;20165;-88
2023/05/14 04:49:10;;;;;;;4.15;3.28;;;;;;;14.30;59.96;99958.06;4458541;32;20092;-88
2023/05/14 04:51:35;;;;;;;4.43;2.97;;;;;;;14.30;59.96;99957.19;4484504;32;20126;-89
2023/05/14 04:54:01;;;;;;;6.82;3.53;;;;;;;14.24;59.96;99953.09;4484837;32;20167;-89
2023/05/14 04:56:26;;;;;;;5.43;3.05;;;;;;;14.33;59.98;99952.69;4484671;32;20470;-88
2023/05/14 04:58:52;;;;;;;5.18;3.30;;;;;;;14.37;59.97;99950.75;4484099;32;29360;-88
2023/05/14 05:01:17;;;;;;;7.40;3.25;;;;;;;14.33;59.96;99942.19;4484298;32;20163;-89
2023/05/14 05:03:42;;;;;;;4.43;3.08;;;;;;;14.39;59.97;99941.06;4471519;32;20111;-89
2023/05/14 05:06:08;;;;;;;5.72;3.58;;;;;;;14.36;59.97;99939.44;4485802;32;20125;-89
2023/05/14 05:08:33;;;;;;;4.85;3.20;;;;;;;14.52;59.98;99947.50;4471582;32;20126;-89
2023/05/14 05:10:59;;;;;;;4.32;3.12;;;;;;;14.45;59.97;99945.25;4459181;32;20088;-89
2023/05/14 05:13:24;;;;;;;5.00;3.42;;;;;;;14.42;59.98;99936.53;4461194;32;20103;-88
2023/05/14 05:15:50;;;;;;;7.18;3.72;;;;;;;14.41;59.98;99936.62;4463148;32;20139;-89
2023/05/14 05:18:15;;;;;;;5.45;3.45;;;;;;;14.26;59.97;99932.94;4476861;32;20119;-90
2023/05/14 05:20:40;;;;;;;4.22;2.92;;;;;;;14.44;59.97;99933.91;4484932;32;20128;-89
2023/05/14 05:23:06;;;;;;;4.93;2.95;;;;;;;14.30;59.97;99936.25;4458294;32;20121;-88
2023/05/14 05:25:31;;;;;;;5.62;3.95;;;;;;;14.35;59.98;99935.13;4484262;32;20130;-89
2023/05/14 05:27:57;;;;;;;8.23;3.42;;;;;;;14.41;59.98;99936.62;4458136;32;20128;-90
2023/05/14 05:30:22;;;;;;;4.57;3.55;;;;;;;14.53;59.98;99937.88;4457783;32;25997;-89
2023/05/14 05:32:47;;;;;;;7.97;3.47;;;;;;;14.52;59.98;99937.03;4457887;32;24825;-91
2023/05/14 05:35:13;;;;;;;6.25;3.78;;;;;;;14.57;59.98;99934.19;4458513;32;20153;-90
2023/05/14 05:37:38;;;;;;;4.75;3.35;;;;;;;14.47;59.97;99935.53;4458511;32;20104;-88
2023/05/14 05:40:05;;;;;;;6.75;3.72;;;;;;;14.39;59.97;99933.22;4484246;32;20107;-89
2023/05/14 05:42:31;;;;;;;8.77;3.85;;;;;;;14.46;59.97;99936.47;4487277;31;20118;-89
2023/05/14 05:44:56;;;;;;;6.47;3.58;;;;;;;14.47;59.98;99928.53;4459865;32;20132;-90
2023/05/14 05:47:21;;;;;;;5.43;3.28;;;;;;;14.51;59.98;99937.09;4460092;32;20122;-89
2023/05/14 05:49:47;;;;;;;6.25;4.22;;;;;;;14.37;59.97;99932.44;4459483;32;26378;-90
2023/05/14 05:52:12;;;;;;;5.68;3.20;;;;;;;14.54;59.98;99936.97;4473093;32;20127;-90
2023/05/14 05:54:38;;;;;;;8.18;4.03;;;;;;;14.55;59.98;99941.28;4486930;31;20155;-91
2023/05/14 05:57:04;;;;;;;7.55;3.47;;;;;;;14.61;59.99;99941.00;4485969;32;20556;-90
2023/05/14 05:59:29;;;;;;;6.47;3.78;;;;;;;14.68;59.99;99948.53;4459723;32;20105;-90
2023/05/14 06:01:55;;;;;;;6.60;3.80;;;;;;;14.86;60.00;99945.97;4485717;32;20119;-90
2023/05/14 06:04:20;;;;;;;6.00;3.45;;;;;;;14.67;59.99;99941.59;4459487;32;20163;-88
2023/05/14 06:06:46;;;;;;;11.30;3.90;;;;;;;14.77;59.99;99943.78;4472719;32;20126;-89
2023/05/14 06:09:12;;;;;;;4.87;3.37;;;;;;;14.72;60.00;99951.84;4485587;32;20125;-89
2023/05/14 06:11:37;;;;;;;5.03;3.45;;;;;;;14.62;59.98;99956.63;4472544;32;20091;-89
2023/05/14 06:14:03;;;;;;;7.72;3.42;;;;;;;14.57;59.98;99947.28;4458398;32;36899;-89
2023/05/14 06:16:28;;;;;;;6.22;3.78;;;;;;;14.71;59.98;99955.37;4473023;32;20143;-90
2023/05/14 06:18:54;;;;;;;6.60;3.87;;;;;;;14.70;59.98;99957.16;4459601;32;20132;-88
2023/05/14 06:21:20;;;;;;;5.28;3.70;;;;;;;14.81;60.00;99955.81;4487378;32;20128;-87
2023/05/14 06:23:45;;;;;;;7.05;3.90;;;;;;;14.76;59.99;99961.25;4460090;32;20163;-90
2023/05/14 06:26:11;;;;;;;8.35;4.57;;;;;;;14.74;59.99;99963.97;4473013;32;20105;-89
2023/05/14 06:28:36;;;;;;;7.57;4.57;;;;;;;14.64;60.00;99967.03;4460042;32;25294;-91
2023/05/14 06:31:02;;;;;;;7.90;4.25;;;;;;;14.57;59.98;99955.16;4461074;32;20091;-91
2023/05/14 06:33:30;;;;;;;8.70;5.05;;;;;;;14.66;59.99;99955.56;4475371;32;20671;-91
2023/05/14 06:35:57;;;;;;;8.27;4.50;;;;;;;14.76;59.99;99949.94;4464335;32;20073;-91
2023/05/14 06:38:23;;;;;;;6.28;4.55;;;;;;;14.73;59.99;99945.69;4466010;32;20113;-89
2023/05/14 06:40:48;;;;;;;7.05;4.75;;;;;;;14.64;59.99;99949.56;4463599;32;20152;-91
2023/05/14 06:43:13;;;;;;;7.93;4.50;;;;;;;14.73;59.99;99943.06;4459802;32;20130;-90
2023/05/14 06:45:39;;;;;;;8.60;4.20;;;;;;;14.75;59.99;99935.97;4472509;32;20130;-90
2023/05/14 06:48:04;;;;;;;7.20;4.60;;;;;;;14.73;59.99;99938.69;4459025;32;30684;-89
2023/05/14 06:50:30;;;;;;;6.97;4.30;;;;;;;14.68;59.98;99938.03;4472615;32;20115;-89
2023/05/14 06:52:55;;;;;;;7.57;4.68;;;;;;;14.58;59.99;99935.91;4458404;32;20618;-90
2023/05/14 06:55:20;;;;;;;11.85;4.78;;;;;;;14.64;59.99;99930.38;4458935;32;23864;-87
2023/05/14 06:57:46;;;;;;;7.15;4.43;;;;;;;14.72;60.00;99934.34;4458704;32;20077;-89
2023/05/14 07:00:13;;;;;;;8.07;4.82;;;;;;;14.61;59.99;99933.13;4459115;32;20092;-90
2023/05/14 07:02:38;;;;;;;8.50;4.40;;;;;;;14.70;59.99;99930.13;4472220;32;20126;-88
2023/05/14 07:05:04;;;;;;;10.45;4.80;;;;;;;14.79;60.00;99923.59;4485693;32;20100;-90
2023/05/14 07:07:29;;;;;;;9.20;4.43;;;;;;;14.94;60.01;99921.09;4472478;32;20115;-89
2023/05/14 07:09:55;;;;;;;7.80;4.65;;;;;;;14.88;60.00;99910.03;4472213;32;20088;-89
2023/05/14 07:12:20;;;;;;;10.15;5.00;;;;;;;14.94;60.01;99913.25;4471970;32;20143;-89
2023/05/14 07:14:46;;;;;;;8.90;4.68;;;;;;;14.97;60.01;99907.84;4485641;32;20326;-89
2023/05/14 07:17:11;;;;;;;7.87;5.20;;;;;;;15.05;60.01;99910.94;4471699;32;26642;-90
2023/05/14 07:19:36;;;;;;;11.75;5.37;;;;;;;15.04;60.01;99911.03;4486753;31;20087;-90
2023/05/14 07:22:02;;;;;;;9.07;4.95;;;;;;;15.15;60.01;99905.28;4485520;32;20104;-89
2023/05/14 07:24:27;;;;;;;11.10;5.28;;;;;;;15.29;60.02;99905.44;4472595;32;20162;-90
2023/05/14 07:26:54;;;;;;;8.60;4.87;;;;;;;15.26;60.02;99898.56;4472446;32;20172;-89
2023/05/14 07:29:19;;;;;;;13.23;5.60;;;;;;;15.33;60.03;99899.97;4472552;32;20478;-90
2023/05/14 07:31:45;;;;;;;9.18;4.95;;;;;;;15.42;60.03;99895.22;4486226;32;20111;-89
2023/05/14 07:34:11;;;;;;;7.43;4.97;;;;;;;15.55;60.04;99904.16;4485200;32;20126;-89
2023/05/14 07:36:36;;;;;;;7.07;5.32;;;;;;;15.64;60.04;99899.34;4485200;32;20814;-90
2023/05/14 07:39:02;;;;;;;5.43;4.37;;;;;;;15.70;60.04;99892.09;4485563;32;20104;-89
2023/05/14 07:41:27;;;;;;;6.05;4.55;;;;;;;15.73;60.04;99892.78;4485255;32;20131;-90
2023/05/14 07:43:53;;;;;;;8.10;4.57;;;;;;;15.92;60.05;99890.06;4485230;32;20084;-89
2023/05/14 07:46:18;;;;;;;8.73;4.25;;;;;;;16.02;60.07;99888.66;4471757;32;20156;-89
2023/05/14 07:48:44;;;;;;;7.35;4.22;;;;;;;15.98;60.06;99881.00;4484641;32;23779;-90
2023/05/14 07:51:10;;;;;;;8.40;4.70;;;;;;;15.93;60.06;99882.09;4472178;32;20181;-87
2023/05/14 07:53:36;;;;;;;9.55;5.50;;;;;;;16.05;60.06;99877.97;4472344;32;20267;-89
2023/05/14 07:56:01;;;;;;;11.52;4.20;;;;;;;16.17;60.07;99879.13;4473272;32;20134;-90
2023/05/14 07:58:27;;;;;;;9.30;5.53;;;;;;;16.24;60.08;99876.09;4474869;32;20144;-90
2023/05/14 08:00:53;;;;;;;8.50;5.05;;;;;;;16.14;60.07;99869.63;4470265;32;20082;-90
2023/05/14 08:03:18;;;;;;;37.42;24.75;;;;;;;16.26;60.08;99865.50;4487185;31;20725;-89
2023/05/14 08:05:44;;;;;;;17.05;12.25;;;;;;;16.35;60.08;99867.66;4484970;32;20096;-90
2023/05/14 08:08:11;;;;;;;8.35;5.07;;;;;;;16.34;60.08;99857.22;4485157;32;20123;-90
2023/05/14 08:10:36;;;;;;;6.75;4.65;;;;;;;16.48;60.09;99857.31;4485061;32;20427;-91
2023/05/14 08:13:02;;;;;;;10.48;5.25;;;;;;;16.48;60.09;99855.53;4459163;32;20132;-89
2023/05/14 08:15:27;;;;;;;6.93;4.85;;;;;;;16.48;60.09;99844.16;4484895;32;20093;-90
2023/05/14 08:17:52;;;;;;;7.18;4.90;;;;;;;16.59;60.09;99841.81;4457671;32;37545;-90
2023/05/14 08:20:18;;;;;;;8.52;4.35;;;;;;;16.57;60.10;99843.69;4458933;32;20548;-89
2023/05/14 08:22:43;;;;;;;10.65;5.60;;;;;;;16.42;60.08;99839.25;4458676;32;20123;-90
2023/05/14 08:25:21;;;;;;;10.90;5.10;;;;;;;16.65;60.10;99841.47;4458909;32;20131;-89
2023/05/14 08:27:47;;;;;;;9.52;5.57;;;;;;;16.53;60.09;99827.22;4458516;32;20338;-90
2023/05/14 08:30:13;;;;;;;8.25;5.10;;;;;;;16.73;60.10;99831.41;4471893;32;20152;-91
2023/05/14 08:32:38;;;;;;;6.50;4.70;;;;;;;16.78;60.11;99828.50;4457667;32;20132;-89
2023/05/14 08:35:04;;;;;;;11.43;5.78;;;;;;;16.90;60.11;99833.09;4470303;32;20360;-92
2023/05/14 08:37:29;;;;;;;8.65;4.93;;;;;;;16.77;60.11;99817.13;4470467;32;20087;-90
2023/05/14 08:39:55;;;;;;;10.90;4.68;;;;;;;16.87;60.11;99820.13;4457169;32;20127;-91
2023/05/14 08:42:20;;;;;;;14.10;5.62;;;;;;;16.83;60.10;99814.19;4447449;32;20109;-91
2023/05/14 08:44:52;;;;;;;8.15;4.72;;;;;;;16.71;60.10;99819.28;4483518;32;20115;-91
2023/05/14 08:47:20;;;;;;;7.53;4.80;;;;;;;16.65;60.10;99820.44;4472142;32;20125;-90
2023/05/14 08:49:46;;;;;;;21.27;5.55;;;;;;;16.77;60.11;99817.13;4473378;32;20100;-90
2023/05/14 08:52:11;;;;;;;6.93;4.55;;;;;;;16.76;60.10;99811.97;4454552;32;20142;-90
2023/05/14 08:54:37;;;;;;;8.70;4.93;;;;;;;16.76;60.10;99817.22;4465326;32;20084;-92
2023/05/14 08:57:03;;;;;;;6.78;4.45;;;;;;;16.96;60.11;99821.34;4450744;32;20144;-91
2023/05/14 08:59:29;;;;;;;7.22;4.75;;;;;;;16.72;60.10;99816.56;4468044;32;20124;-91
2023/05/14 09:01:55;;;;;;;10.55;4.78;;;;;;;17.00;60.11;99817.63;4450550;32;20146;-91
2023/05/14 09:04:21;;;;;;;11.73;5.20;;;;;;;16.90;60.11;99817.31;4470488;32;20126;-90
2023/05/14 09:06:52;;;;;;;9.75;4.62;;;;;;;16.96;60.11;99816.94;4467969;32;20159;-92
2023/05/14 09:09:17;;;;;;;9.05;5.05;;;;;;;16.95;60.11;99824.94;4455320;32;20483;-93
2023/05/14 09:11:46;;;;;;;7.12;4.75;;;;;;;16.92;60.11;99815.44;4444009;32;20109;-91
2023/05/14 09:14:12;;;;;;;6.50;4.95;;;;;;;16.94;60.12;99817.97;4464186;32;20123;-89
2023/05/14 09:16:37;;;;;;;8.93;4.97;;;;;;;16.91;60.11;99820.78;4455126;32;20686;-89
2023/05/14 09:19:04;;;;;;;8.70;5.10;;;;;;;17.02;60.11;99813.97;4456448;32;20181;-89
2023/05/14 09:21:30;;;;;;;8.82;5.07;;;;;;;16.90;60.10;99813.84;4473912;32;20068;-89
2023/05/14 09:23:56;;;;;;;8.35;4.87;;;;;;;17.00;60.12;99810.56;4478626;32;20520;-88
2023/05/14 09:26:27;;;;;;;7.65;5.10;;;;;;;16.81;60.10;99792.41;4466537;32;20084;-89
2023/05/14 09:28:54;;;;;;;10.55;5.25;;;;;;;16.84;60.10;99792.22;4467133;32;20355;-89
2023/05/14 09:31:20;;;;;;;8.70;5.25;;;;;;;16.71;60.10;99787.72;4469152;32;20104;-87
2023/05/14 09:33:51;;;;;;;8.98;4.85;;;;;;;16.88;60.11;99790.25;4484286;32;20095;-89
2023/05/14 09:36:17;;;;;;;9.10;5.90;;;;;;;16.81;60.10;99787.13;4483032;32;20084;-89
2023/05/14 09:38:42;;;;;;;7.43;4.95;;;;;;;16.72;60.10;99790.28;4456913;32;20085;-89
2023/05/14 09:41:08;;;;;;;8.40;5.07;;;;;;;16.88;60.11;99791.09;4453253;32;25510;-91
2023/05/14 09:43:33;;;;;;;7.82;5.28;;;;;;;16.77;60.09;99772.44;4441644;32;20147;-90
2023/05/14 09:45:59;;;;;;;10.95;5.57;;;;;;;16.78;60.09;99775.94;4455399;32;20386;-88
2023/05/14 09:48:24;;;;;;;10.20;5.82;;;;;;;16.71;60.10;99767.56;4456774;32;20439;-91
2023/05/14 09:50:51;;;;;;;6.65;5.40;;;;;;;16.54;60.08;99768.47;4443838;32;20139;-89
2023/05/14 09:53:16;;;;;;;8.40;5.97;;;;;;;16.50;60.09;99764.31;4476394;32;20420;-89
2023/05/14 09:55:42;;;;;;;9.27;5.97;;;;;;;16.35;60.07;99766.97;4456210;32;20159;-88
2023/05/14 09:58:07;;;;;;;10.93;5.57;;;;;;;16.42;60.08;99758.66;4456619;32;20115;-89
2023/05/14 10:00:33;;;;;;;10.15;6.18;;;;;;;16.47;60.09;99758.38;4453179;32;20113;-89
2023/05/14 10:02:58;;;;;;;8.50;5.80;;;;;;;16.32;60.08;99732.97;4462865;32;20156;-89
2023/05/14 10:05:25;;;;;;;11.10;6.53;;;;;;;16.28;60.07;99730.50;4455690;32;20369;-88
2023/05/14 10:07:52;;;;;;;8.60;5.87;;;;;;;16.27;60.07;99728.81;4469242;32;20161;-88
2023/05/14 10:10:18;;;;;;;8.27;5.80;;;;;;;16.40;60.08;99720.28;4456329;32;20127;-90
2023/05/14 10:12:52;;;;;;;10.95;7.03;;;;;;;16.43;60.08;99720.94;4469068;32;20118;-89
2023/05/14 10:15:32;;;;;;;8.15;5.32;;;;;;;16.52;60.09;99703.78;4453043;32;20441;-88
2023/05/14 10:17:58;;;;;;;;;;;;;;;16.37;60.08;99699.44;4465918;32;20386;-91
2023/05/14 10:20:23;;;;;;;12.30;5.62;;;;;;;16.42;60.08;99692.12;4483579;31;20002;-89
2023/05/14 10:22:49;;;;;;;8.68;5.85;;;;;;;16.46;60.08;99672.63;4480734;32;20101;-91
2023/05/14 10:25:14;;;;;;;9.07;5.72;;;;;;;16.52;60.08;99656.50;4440165;32;28099;-93
2023/05/14 10:27:40;;;;;;;12.98;6.22;;;;;;;16.49;60.09;99667.19;4466125;32;20160;-88
2023/05/14 10:30:10;;;;;;;7.47;5.07;;;;;;;16.54;60.08;99662.50;4470747;32;21028;-89
2023/05/14 10:32:36;;;;;;;9.32;5.53;;;;;;;16.69;60.09;99680.06;4470223;32;20151;-89
2023/05/14 10:35:19;;;;;;;7.55;5.05;;;;;;;16.75;60.09;99698.09;4471660;32;20130;-89
2023/05/14 10:37:45;;;;;;;12.32;6.28;;;;;;;16.93;60.11;99692.72;4484751;32;20092;-89
2023/05/14 10:40:11;;;;;;;8.35;5.65;;;;;;;16.84;60.10;99675.69;4459254;32;20436;-91
2023/05/14 10:42:42;;;;;;;9.75;5.37;;;;;;;16.85;60.11;99678.25;4473716;32;20159;-90
2023/05/14 10:45:08;;;;;;;9.38;5.68;;;;;;;16.83;60.10;99674.84;4494511;32;20075;-88
2023/05/14 10:47:35;;;;;;;7.70;5.25;;;;;;;16.76;60.09;99670.88;4487161;32;20471;-91
2023/05/14 10:50:08;;;;;;;7.30;4.87;;;;;;;16.67;60.09;99676.69;4484760;32;20130;-88
2023/05/14 10:52:34;;;;;;;8.68;5.68;;;;;;;16.87;60.10;99675.50;4455521;32;20362;-91
2023/05/14 10:55:06;;;;;;;9.70;5.60;;;;;;;16.65;60.10;99675.88;4465555;32;20102;-91
2023/05/14 10:57:34;;;;;;;8.23;5.72;;;;;;;16.81;60.10;99673.25;4456000;32;20453;-92
2023/05/14 10:59:59;;;;;;;9.88;5.78;;;;;;;16.79;60.10;99670.69;4464188;32;20126;-90
2023/05/14 11:02:26;;;;;;;9.88;5.22;;;;;;;16.72;60.10;99674.63;4471405;32;20084;-91
2023/05/14 11:04:54;;;;;;;10.05;5.50;;;;;;;16.50;60.09;99676.75;4471134;32;20156;-91
2023/05/14 11:07:32;;;;;;;8.77;6.05;;;;;;;16.42;60.08;99671.13;4471484;32;20160;-91
2023/05/14 11:10:16;;;;;;;10.57;6.37;;;;;;;16.51;60.09;99665.31;4472375;31;20150;-92
2023/05/14 11:12:43;;;;;;;9.82;5.57;;;;;;;16.55;60.09;99653.69;4458012;32;20189;-92
2023/05/14 11:15:10;;;;;;;8.93;5.50;;;;;;;16.43;60.08;99657.87;4458179;32;20108;-90
2023/05/14 11:17:36;;;;;;;11.50;5.45;;;;;;;16.40;60.09;99657.22;4455769;32;20172;-91
2023/05/14 11:20:02;;;;;;;11.10;5.85;;;;;;;16.33;60.08;99653.25;4457348;32;20135;-90
2023/05/14 11:22:27;;;;;;;9.35;5.32;;;;;;;16.32;60.08;99665.50;4455473;32;20144;-92
2023/05/14 11:24:53;;;;;;;7.95;5.20;;;;;;;16.35;60.08;99652.25;4470010;32;20205;-91
2023/05/14 11:27:19;;;;;;;12.18;6.03;;;;;;;16.37;60.08;99653.00;4457817;32;20164;-91